IHDDF LIPV-LIPZ
Flight info
| Callsign | IHDDF |
|---|---|
| Flight time | 0h -5m |
| Altitude | 5000 |
| Route | CASAVIO LIPZ TRAFFIC PATTERN CASAVIO PORTODIMALAMOCCO IFR LAREN |
| Aircraft | C172/L-SDE3FGHIRWY/S |
Departure
| Time | 2026-05-08 15:21 |
|---|---|
| Airport | Venice-Lido Giovanni Nicelli Airfield (LIPV) |
Arrival
| Time | 2026-05-08 15:16 |
|---|---|
| Airport | Venice Marco Polo Airport (LIPZ) |
| Time | Latitude | Longitude | Altitude | Speed | Heading |
|---|---|---|---|---|---|
| 2026-05-08 15:15 | 45.42646 | 12.38285 | 12 ft | 0 kts | 296° |
| 2026-05-08 15:18 | 45.42647 | 12.38283 | 12 ft | 2 kts | 302° |
| 2026-05-08 15:18 | 45.42661 | 12.38277 | 12 ft | 5 kts | 20° |
| 2026-05-08 15:18 | 45.42676 | 12.38301 | 12 ft | 2 kts | 58° |
| 2026-05-08 15:19 | 45.42668 | 12.38365 | 10 ft | 11 kts | 106° |
| 2026-05-08 15:19 | 45.42696 | 12.38515 | 6 ft | 32 kts | 59° |
| 2026-05-08 15:19 | 45.42920 | 12.38967 | 8 ft | 76 kts | 65° |
| 2026-05-08 15:19 | 45.43280 | 12.39616 | 139 ft | 90 kts | 51° |
| 2026-05-08 15:20 | 45.43606 | 12.40334 | 328 ft | 90 kts | 72° |
| 2026-05-08 15:20 | 45.43786 | 12.41241 | 450 ft | 96 kts | 77° |
| 2026-05-08 15:20 | 45.44033 | 12.42216 | 480 ft | 113 kts | 72° |
| 2026-05-08 15:20 | 45.44322 | 12.43296 | 561 ft | 118 kts | 68° |
| 2026-05-08 15:21 | 45.44774 | 12.44230 | 743 ft | 114 kts | 48° |
| 2026-05-08 15:21 | 45.45344 | 12.45034 | 880 ft | 116 kts | 45° |
| 2026-05-08 15:21 | 45.45941 | 12.45804 | 1062 ft | 116 kts | 26° |
| 2026-05-08 15:21 | 45.46669 | 12.45472 | 1100 ft | 122 kts | 303° |
| 2026-05-08 15:22 | 45.47091 | 12.44509 | 1264 ft | 117 kts | 314° |
| 2026-05-08 15:22 | 45.47681 | 12.43642 | 1267 ft | 125 kts | 310° |
| 2026-05-08 15:22 | 45.48083 | 12.42570 | 1378 ft | 119 kts | 284° |
| 2026-05-08 15:22 | 45.48315 | 12.41406 | 1387 ft | 125 kts | 284° |
| 2026-05-08 15:23 | 45.48520 | 12.40201 | 1440 ft | 124 kts | 281° |
| 2026-05-08 15:23 | 45.48757 | 12.38972 | 1296 ft | 135 kts | 286° |
| 2026-05-08 15:23 | 45.49027 | 12.37686 | 1167 ft | 136 kts | 285° |
| 2026-05-08 15:23 | 45.49034 | 12.36394 | 992 ft | 130 kts | 255° |
| 2026-05-08 15:24 | 45.48732 | 12.35207 | 777 ft | 117 kts | 238° |
| 2026-05-08 15:24 | 45.48322 | 12.34332 | 592 ft | 96 kts | 231° |
| 2026-05-08 15:24 | 45.48357 | 12.33456 | 322 ft | 97 kts | 302° |
| 2026-05-08 15:24 | 45.48898 | 12.33196 | 220 ft | 78 kts | 30° |
| 2026-05-08 15:25 | 45.49301 | 12.33616 | 67 ft | 70 kts | 47° |
| 2026-05-08 15:25 | 45.49649 | 12.34061 | 11 ft | 64 kts | 46° |
| 2026-05-08 15:25 | 45.49934 | 12.34469 | 22 ft | 64 kts | 39° |
| 2026-05-08 15:25 | 45.50331 | 12.34925 | 99 ft | 81 kts | 44° |
| 2026-05-08 15:26 | 45.50784 | 12.35467 | 247 ft | 87 kts | 43° |
| 2026-05-08 15:26 | 45.51303 | 12.36059 | 355 ft | 98 kts | 44° |
| 2026-05-08 15:26 | 45.51796 | 12.36685 | 590 ft | 97 kts | 52° |
| 2026-05-08 15:26 | 45.51790 | 12.37560 | 701 ft | 101 kts | 122° |
| 2026-05-08 15:27 | 45.51337 | 12.38284 | 840 ft | 99 kts | 181° |
| 2026-05-08 15:27 | 45.50785 | 12.37663 | 898 ft | 110 kts | 223° |
| 2026-05-08 15:27 | 45.50305 | 12.36860 | 1074 ft | 106 kts | 255° |
| 2026-05-08 15:27 | 45.50378 | 12.35790 | 1151 ft | 111 kts | 276° |
| 2026-05-08 15:28 | 45.50453 | 12.34707 | 1311 ft | 110 kts | 271° |
| 2026-05-08 15:28 | 45.50490 | 12.33603 | 1430 ft | 112 kts | 275° |
| 2026-05-08 15:28 | 45.50268 | 12.32596 | 1476 ft | 105 kts | 231° |
| 2026-05-08 15:28 | 45.49824 | 12.31793 | 1174 ft | 102 kts | 222° |
| 2026-05-08 15:29 | 45.49443 | 12.31485 | 1071 ft | 92 kts | 195° |
| 2026-05-08 15:29 | 45.48851 | 12.31603 | 898 ft | 83 kts | 140° |
| 2026-05-08 15:29 | 45.48560 | 12.32259 | 730 ft | 81 kts | 111° |
| 2026-05-08 15:29 | 45.48803 | 12.32952 | 511 ft | 84 kts | 37° |
| 2026-05-08 15:30 | 45.49234 | 12.33494 | 185 ft | 81 kts | 43° |
| 2026-05-08 15:30 | 45.49592 | 12.33995 | 52 ft | 64 kts | 44° |
| 2026-05-08 15:30 | 45.49898 | 12.34406 | 8 ft | 56 kts | 47° |
| 2026-05-08 15:30 | 45.50197 | 12.34815 | 39 ft | 69 kts | 52° |
| 2026-05-08 15:31 | 45.50632 | 12.35296 | 158 ft | 83 kts | 42° |
| 2026-05-08 15:31 | 45.51088 | 12.35788 | 351 ft | 85 kts | 38° |
| 2026-05-08 15:31 | 45.51548 | 12.36389 | 498 ft | 92 kts | 46° |
| 2026-05-08 15:31 | 45.52087 | 12.36766 | 659 ft | 101 kts | 335° |
| 2026-05-08 15:32 | 45.52501 | 12.35993 | 849 ft | 101 kts | 297° |
| 2026-05-08 15:32 | 45.52408 | 12.35080 | 819 ft | 113 kts | 217° |
| 2026-05-08 15:32 | 45.51785 | 12.34474 | 998 ft | 108 kts | 211° |
| 2026-05-08 15:32 | 45.51132 | 12.33901 | 1087 ft | 111 kts | 209° |
| 2026-05-08 15:33 | 45.50370 | 12.33650 | 1072 ft | 118 kts | 175° |
| 2026-05-08 15:33 | 45.49533 | 12.33833 | 883 ft | 118 kts | 164° |
| 2026-05-08 15:33 | 45.48884 | 12.34392 | 907 ft | 108 kts | 143° |
| 2026-05-08 15:33 | 45.48386 | 12.35106 | 988 ft | 102 kts | 132° |
| 2026-05-08 15:34 | 45.47918 | 12.35985 | 961 ft | 117 kts | 127° |
| 2026-05-08 15:34 | 45.47456 | 12.36964 | 1002 ft | 121 kts | 127° |
| 2026-05-08 15:34 | 45.47055 | 12.38053 | 938 ft | 125 kts | 115° |
| 2026-05-08 15:34 | 45.46769 | 12.39207 | 1005 ft | 122 kts | 112° |
| 2026-05-08 15:35 | 45.46520 | 12.40389 | 975 ft | 126 kts | 108° |
| 2026-05-08 15:35 | 45.46282 | 12.41601 | 1011 ft | 125 kts | 105° |
| 2026-05-08 15:35 | 45.46099 | 12.42808 | 985 ft | 128 kts | 105° |
| 2026-05-08 15:35 | 45.45875 | 12.44022 | 1011 ft | 125 kts | 110° |
| 2026-05-08 15:36 | 45.45633 | 12.45228 | 1038 ft | 127 kts | 104° |
| 2026-05-08 15:36 | 45.45222 | 12.46309 | 912 ft | 136 kts | 152° |
| 2026-05-08 15:36 | 45.44417 | 12.46109 | 953 ft | 126 kts | 236° |
| 2026-05-08 15:36 | 45.44033 | 12.45014 | 1056 ft | 120 kts | 243° |
| 2026-05-08 15:37 | 45.43645 | 12.43938 | 1069 ft | 125 kts | 242° |
| 2026-05-08 15:37 | 45.43211 | 12.42856 | 1026 ft | 126 kts | 227° |
| 2026-05-08 15:37 | 45.42542 | 12.42080 | 984 ft | 126 kts | 217° |
| 2026-05-08 15:37 | 45.41849 | 12.41312 | 937 ft | 126 kts | 218° |
| 2026-05-08 15:38 | 45.41156 | 12.40549 | 896 ft | 126 kts | 217° |
| 2026-05-08 15:38 | 45.40465 | 12.39790 | 862 ft | 125 kts | 217° |
| 2026-05-08 15:38 | 45.39779 | 12.39047 | 856 ft | 123 kts | 216° |
| 2026-05-08 15:38 | 45.39098 | 12.38311 | 828 ft | 127 kts | 217° |
| 2026-05-08 15:39 | 45.38410 | 12.37574 | 913 ft | 120 kts | 217° |
| 2026-05-08 15:39 | 45.37749 | 12.36888 | 1037 ft | 114 kts | 213° |
| 2026-05-08 15:39 | 45.37101 | 12.36271 | 1176 ft | 111 kts | 213° |
| 2026-05-08 15:39 | 45.36491 | 12.35675 | 1417 ft | 102 kts | 214° |
| 2026-05-08 15:40 | 45.35923 | 12.35133 | 1660 ft | 95 kts | 213° |
| 2026-05-08 15:40 | 45.35387 | 12.34623 | 1914 ft | 90 kts | 213° |
| 2026-05-08 15:40 | 45.34877 | 12.34137 | 2134 ft | 89 kts | 213° |
| 2026-05-08 15:40 | 45.34359 | 12.33646 | 2332 ft | 90 kts | 213° |
| 2026-05-08 15:41 | 45.33834 | 12.33149 | 2526 ft | 91 kts | 213° |
| 2026-05-08 15:41 | 45.33302 | 12.32648 | 2738 ft | 92 kts | 213° |
| 2026-05-08 15:41 | 45.32749 | 12.32131 | 2940 ft | 97 kts | 213° |
| 2026-05-08 15:41 | 45.32138 | 12.31577 | 2995 ft | 113 kts | 212° |
| 2026-05-08 15:42 | 45.31452 | 12.30958 | 3011 ft | 120 kts | 213° |
| 2026-05-08 15:42 | 45.30739 | 12.30291 | 3013 ft | 124 kts | 218° |
| 2026-05-08 15:42 | 45.30074 | 12.29491 | 3010 ft | 126 kts | 216° |
| 2026-05-08 15:42 | 45.29337 | 12.28806 | 3012 ft | 127 kts | 211° |
| 2026-05-08 15:43 | 45.28688 | 12.27988 | 3011 ft | 128 kts | 245° |
| 2026-05-08 15:43 | 45.28712 | 12.26760 | 3011 ft | 128 kts | 288° |
| 2026-05-08 15:43 | 45.28980 | 12.25550 | 3011 ft | 129 kts | 288° |
| 2026-05-08 15:43 | 45.29131 | 12.24311 | 3004 ft | 128 kts | 266° |
| 2026-05-08 15:44 | 45.29368 | 12.23089 | 2857 ft | 136 kts | 302° |
| 2026-05-08 15:44 | 45.29866 | 12.22045 | 2987 ft | 125 kts | 304° |
| 2026-05-08 15:44 | 45.30286 | 12.20926 | 2955 ft | 129 kts | 297° |
| 2026-05-08 15:44 | 45.30620 | 12.19767 | 2999 ft | 127 kts | 287° |
| 2026-05-08 15:45 | 45.30905 | 12.18585 | 3003 ft | 127 kts | 300° |
| 2026-05-08 15:45 | 45.31359 | 12.17503 | 3004 ft | 128 kts | 301° |
| 2026-05-08 15:45 | 45.31910 | 12.16543 | 3004 ft | 127 kts | 334° |
| 2026-05-08 15:45 | 45.32769 | 12.16512 | 3014 ft | 126 kts | 14° |
| 2026-05-08 15:46 | 45.33622 | 12.16797 | 3014 ft | 126 kts | 14° |
| 2026-05-08 15:46 | 45.34483 | 12.17080 | 3028 ft | 123 kts | 13° |
| 2026-05-08 15:46 | 45.35323 | 12.17352 | 2975 ft | 128 kts | 14° |
| 2026-05-08 15:46 | 45.36197 | 12.17669 | 2833 ft | 131 kts | 20° |
| 2026-05-08 15:47 | 45.37044 | 12.18172 | 2672 ft | 132 kts | 27° |
| 2026-05-08 15:47 | 45.37780 | 12.18955 | 2510 ft | 137 kts | 40° |
| 2026-05-08 15:47 | 45.38517 | 12.19834 | 2341 ft | 139 kts | 42° |
| 2026-05-08 15:47 | 45.39250 | 12.20747 | 2170 ft | 141 kts | 43° |
| 2026-05-08 15:48 | 45.40692 | 12.22580 | 2000 ft | 134 kts | 43° |
| 2026-05-08 15:48 | 45.41379 | 12.23463 | 1992 ft | 132 kts | 43° |
| 2026-05-08 15:48 | 45.42063 | 12.24335 | 1951 ft | 134 kts | 44° |
| 2026-05-08 15:49 | 45.42770 | 12.25250 | 1784 ft | 140 kts | 44° |
| 2026-05-08 15:49 | 45.43454 | 12.26127 | 1593 ft | 119 kts | 44° |
| 2026-05-08 15:49 | 45.44027 | 12.26864 | 1442 ft | 104 kts | 45° |
| 2026-05-08 15:49 | 45.44550 | 12.27532 | 1305 ft | 100 kts | 45° |
| 2026-05-08 15:50 | 45.45058 | 12.28183 | 1176 ft | 97 kts | 45° |
| 2026-05-08 15:50 | 45.45573 | 12.28846 | 1049 ft | 105 kts | 44° |
| 2026-05-08 15:50 | 45.46133 | 12.29569 | 906 ft | 112 kts | 44° |
| 2026-05-08 15:50 | 45.46702 | 12.30302 | 758 ft | 110 kts | 44° |
| 2026-05-08 15:51 | 45.47266 | 12.31023 | 612 ft | 107 kts | 45° |
| 2026-05-08 15:51 | 45.47791 | 12.31701 | 480 ft | 94 kts | 45° |
| 2026-05-08 15:51 | 45.48246 | 12.32279 | 327 ft | 87 kts | 45° |
| 2026-05-08 15:51 | 45.48692 | 12.32835 | 226 ft | 82 kts | 44° |
| 2026-05-08 15:52 | 45.49126 | 12.33355 | 178 ft | 84 kts | 42° |
| 2026-05-08 15:52 | 45.49587 | 12.33863 | 365 ft | 85 kts | 52° |
| 2026-05-08 15:52 | 45.49906 | 12.34575 | 533 ft | 85 kts | 66° |
| 2026-05-08 15:52 | 45.50396 | 12.35133 | 634 ft | 100 kts | 39° |
| 2026-05-08 15:53 | 45.50942 | 12.35672 | 862 ft | 90 kts | 42° |
| 2026-05-08 15:53 | 45.51461 | 12.36273 | 992 ft | 101 kts | 36° |
| 2026-05-08 15:53 | 45.51983 | 12.36868 | 1264 ft | 96 kts | 47° |
| 2026-05-08 15:53 | 45.52489 | 12.37487 | 1521 ft | 93 kts | 44° |
| 2026-05-08 15:54 | 45.52951 | 12.38157 | 1743 ft | 94 kts | 56° |
| 2026-05-08 15:54 | 45.53298 | 12.38909 | 1968 ft | 92 kts | 40° |
| 2026-05-08 15:54 | 45.53852 | 12.39541 | 2010 ft | 113 kts | 42° |
| 2026-05-08 15:54 | 45.54464 | 12.40344 | 2013 ft | 123 kts | 46° |
| 2026-05-08 15:55 | 45.54981 | 12.41349 | 2006 ft | 129 kts | 62° |
| 2026-05-08 15:55 | 45.54898 | 12.43740 | 2006 ft | 129 kts | 121° |
| 2026-05-08 15:55 | 45.54206 | 12.44441 | 2041 ft | 125 kts | 172° |
| 2026-05-08 15:56 | 45.53367 | 12.44585 | 2213 ft | 118 kts | 172° |
| 2026-05-08 15:56 | 45.52583 | 12.44774 | 2394 ft | 111 kts | 171° |
| 2026-05-08 15:56 | 45.51839 | 12.44967 | 2575 ft | 107 kts | 170° |
| 2026-05-08 15:56 | 45.51124 | 12.45159 | 2759 ft | 104 kts | 169° |
| 2026-05-08 15:57 | 45.50420 | 12.45350 | 2946 ft | 102 kts | 169° |
| 2026-05-08 15:57 | 45.49690 | 12.45547 | 2994 ft | 113 kts | 169° |
| 2026-05-08 15:57 | 45.48898 | 12.45758 | 3005 ft | 121 kts | 169° |
| 2026-05-08 15:57 | 45.48054 | 12.45988 | 3005 ft | 126 kts | 169° |
| 2026-05-08 15:58 | 45.47184 | 12.46221 | 3007 ft | 128 kts | 169° |
| 2026-05-08 15:58 | 45.46306 | 12.46459 | 3004 ft | 128 kts | 169° |
| 2026-05-08 15:58 | 45.45430 | 12.46698 | 3001 ft | 129 kts | 169° |
| 2026-05-08 15:58 | 45.44548 | 12.46939 | 3000 ft | 129 kts | 169° |
| 2026-05-08 15:59 | 45.43670 | 12.47179 | 3002 ft | 128 kts | 169° |
| 2026-05-08 15:59 | 45.42804 | 12.47145 | 3004 ft | 127 kts | 207° |
| 2026-05-08 15:59 | 45.42266 | 12.46177 | 3002 ft | 128 kts | 244° |
| 2026-05-08 15:59 | 45.41872 | 12.45039 | 3003 ft | 128 kts | 244° |
| 2026-05-08 16:00 | 45.41476 | 12.43901 | 3002 ft | 128 kts | 244° |
| 2026-05-08 16:00 | 45.41080 | 12.42764 | 3004 ft | 128 kts | 244° |
| 2026-05-08 16:00 | 45.40683 | 12.41627 | 3000 ft | 128 kts | 244° |
| 2026-05-08 16:00 | 45.40286 | 12.40490 | 3000 ft | 128 kts | 244° |
| 2026-05-08 16:01 | 45.39888 | 12.39352 | 3004 ft | 128 kts | 244° |
| 2026-05-08 16:01 | 45.39490 | 12.38214 | 2999 ft | 129 kts | 244° |
| 2026-05-08 16:01 | 45.39092 | 12.37076 | 2998 ft | 128 kts | 244° |
| 2026-05-08 16:01 | 45.38692 | 12.35939 | 3002 ft | 128 kts | 244° |
| 2026-05-08 16:02 | 45.38293 | 12.34801 | 3002 ft | 129 kts | 244° |
| 2026-05-08 16:02 | 45.37891 | 12.33650 | 2995 ft | 130 kts | 244° |
| 2026-05-08 16:02 | 45.37489 | 12.32505 | 2996 ft | 129 kts | 244° |
| 2026-05-08 16:02 | 45.37093 | 12.31376 | 2995 ft | 129 kts | 244° |
| 2026-05-08 16:03 | 45.36693 | 12.30239 | 2995 ft | 128 kts | 244° |
| 2026-05-08 16:03 | 45.36295 | 12.29104 | 3006 ft | 128 kts | 244° |
| 2026-05-08 16:03 | 45.36148 | 12.27881 | 3007 ft | 127 kts | 274° |
| 2026-05-08 16:03 | 45.36203 | 12.26619 | 3009 ft | 128 kts | 274° |
| 2026-05-08 16:04 | 45.36252 | 12.25366 | 3007 ft | 128 kts | 274° |
| 2026-05-08 16:04 | 45.36301 | 12.24093 | 3010 ft | 130 kts | 274° |
| 2026-05-08 16:04 | 45.36354 | 12.22811 | 3005 ft | 129 kts | 277° |
| 2026-05-08 16:04 | 45.36776 | 12.21730 | 3010 ft | 128 kts | 314° |
| 2026-05-08 16:05 | 45.37451 | 12.20939 | 3010 ft | 127 kts | 342° |
| 2026-05-08 16:05 | 45.38319 | 12.20998 | 3011 ft | 127 kts | 14° |
| 2026-05-08 16:05 | 45.39189 | 12.21287 | 2949 ft | 130 kts | 14° |
| 2026-05-08 16:05 | 45.40088 | 12.21589 | 2823 ft | 134 kts | 14° |
| 2026-05-08 16:06 | 45.40998 | 12.21941 | 2657 ft | 136 kts | 30° |
| 2026-05-08 16:06 | 45.41483 | 12.23079 | 2370 ft | 142 kts | 80° |
| 2026-05-08 16:06 | 45.41926 | 12.24324 | 2112 ft | 144 kts | 43° |
| 2026-05-08 16:06 | 45.42697 | 12.25207 | 1993 ft | 139 kts | 42° |
| 2026-05-08 16:07 | 45.43433 | 12.26129 | 1546 ft | 136 kts | 45° |
| 2026-05-08 16:07 | 45.44120 | 12.27003 | 1428 ft | 138 kts | 43° |
| 2026-05-08 16:07 | 45.44857 | 12.27925 | 1240 ft | 143 kts | 45° |
| 2026-05-08 16:07 | 45.45601 | 12.28883 | 1043 ft | 145 kts | 44° |
| 2026-05-08 16:08 | 45.46358 | 12.29853 | 839 ft | 147 kts | 44° |
| 2026-05-08 16:08 | 45.47071 | 12.30781 | 657 ft | 126 kts | 44° |
| 2026-05-08 16:08 | 45.47674 | 12.31554 | 500 ft | 108 kts | 44° |
| 2026-05-08 16:08 | 45.48211 | 12.32238 | 363 ft | 100 kts | 45° |
| 2026-05-08 16:09 | 45.48796 | 12.32951 | 419 ft | 112 kts | 42° |
| 2026-05-08 16:09 | 45.49193 | 12.33402 | 550 ft | 110 kts | 41° |
| 2026-05-08 16:09 | 45.50024 | 12.34270 | 730 ft | 113 kts | 37° |
| 2026-05-08 16:09 | 45.50688 | 12.34886 | 857 ft | 115 kts | 34° |
| 2026-05-08 16:10 | 45.51360 | 12.35465 | 1013 ft | 112 kts | 32° |
| 2026-05-08 16:10 | 45.51808 | 12.35828 | 1121 ft | 111 kts | 30° |
| 2026-05-08 16:10 | 45.52143 | 12.36090 | 1205 ft | 112 kts | 30° |
| 2026-05-08 16:10 | 45.52766 | 12.36733 | 1377 ft | 111 kts | 62° |
| 2026-05-08 16:11 | 45.52928 | 12.37799 | 1554 ft | 111 kts | 77° |
| 2026-05-08 16:11 | 45.53170 | 12.38438 | 1680 ft | 112 kts | 49° |
| 2026-05-08 16:11 | 45.53732 | 12.39219 | 1853 ft | 114 kts | 46° |
| 2026-05-08 16:11 | 45.54307 | 12.40001 | 2025 ft | 114 kts | 45° |
| 2026-05-08 16:12 | 45.54679 | 12.40937 | 2211 ft | 109 kts | 83° |
| 2026-05-08 16:12 | 45.54535 | 12.41971 | 2386 ft | 107 kts | 122° |
| 2026-05-08 16:12 | 45.54035 | 12.42744 | 2567 ft | 106 kts | 135° |
| 2026-05-08 16:12 | 45.53523 | 12.43497 | 2740 ft | 106 kts | 135° |
| 2026-05-08 16:13 | 45.53012 | 12.44247 | 2913 ft | 105 kts | 134° |
| 2026-05-08 16:13 | 45.52506 | 12.44989 | 3085 ft | 104 kts | 134° |
| 2026-05-08 16:13 | 45.51932 | 12.45333 | 3243 ft | 102 kts | 191° |
| 2026-05-08 16:13 | 45.51327 | 12.44983 | 3409 ft | 101 kts | 203° |
| 2026-05-08 16:14 | 45.50681 | 12.44603 | 3582 ft | 100 kts | 203° |
| 2026-05-08 16:14 | 45.50039 | 12.44222 | 3756 ft | 100 kts | 204° |
| 2026-05-08 16:14 | 45.49398 | 12.43842 | 3930 ft | 99 kts | 204° |
| 2026-05-08 16:14 | 45.48733 | 12.43447 | 3996 ft | 111 kts | 204° |
| 2026-05-08 16:15 | 45.47995 | 12.43003 | 4002 ft | 119 kts | 204° |
| 2026-05-08 16:15 | 45.47216 | 12.42531 | 4011 ft | 124 kts | 204° |
| 2026-05-08 16:15 | 45.46410 | 12.42043 | 4001 ft | 127 kts | 204° |
| 2026-05-08 16:15 | 45.45596 | 12.41547 | 4004 ft | 127 kts | 206° |
| 2026-05-08 16:16 | 45.44867 | 12.40837 | 4003 ft | 128 kts | 219° |
| 2026-05-08 16:16 | 45.44168 | 12.40056 | 4004 ft | 128 kts | 219° |
| 2026-05-08 16:16 | 45.43466 | 12.39278 | 4004 ft | 128 kts | 219° |
| 2026-05-08 16:16 | 45.42765 | 12.38501 | 4002 ft | 129 kts | 219° |
| 2026-05-08 16:17 | 45.42056 | 12.37715 | 4007 ft | 130 kts | 219° |
| 2026-05-08 16:17 | 45.41340 | 12.36925 | 4004 ft | 130 kts | 219° |
| 2026-05-08 16:17 | 45.40621 | 12.36131 | 4005 ft | 130 kts | 219° |
| 2026-05-08 16:17 | 45.39908 | 12.35348 | 3999 ft | 128 kts | 219° |
| 2026-05-08 16:18 | 45.39205 | 12.34576 | 3998 ft | 127 kts | 219° |
| 2026-05-08 16:18 | 45.38514 | 12.33816 | 3997 ft | 127 kts | 219° |
| 2026-05-08 16:18 | 45.37817 | 12.33048 | 3996 ft | 127 kts | 219° |
| 2026-05-08 16:18 | 45.37121 | 12.32282 | 3996 ft | 127 kts | 219° |
| 2026-05-08 16:19 | 45.36424 | 12.31515 | 3999 ft | 126 kts | 219° |
| 2026-05-08 16:19 | 45.35728 | 12.30751 | 3999 ft | 126 kts | 219° |
| 2026-05-08 16:19 | 45.35032 | 12.29989 | 4001 ft | 126 kts | 219° |
| 2026-05-08 16:19 | 45.34488 | 12.29057 | 4001 ft | 124 kts | 257° |
| 2026-05-08 16:20 | 45.34494 | 12.27838 | 4010 ft | 124 kts | 274° |
| 2026-05-08 16:20 | 45.34544 | 12.26608 | 4008 ft | 125 kts | 274° |
| 2026-05-08 16:20 | 45.34594 | 12.25375 | 4011 ft | 125 kts | 274° |
| 2026-05-08 16:20 | 45.34644 | 12.24139 | 4009 ft | 125 kts | 274° |
| 2026-05-08 16:21 | 45.34694 | 12.22906 | 4008 ft | 125 kts | 274° |
| 2026-05-08 16:21 | 45.34744 | 12.21673 | 4011 ft | 125 kts | 274° |
| 2026-05-08 16:21 | 45.34781 | 12.20775 | 4010 ft | 126 kts | 274° |
| 2026-05-08 16:21 | 45.34832 | 12.19536 | 4008 ft | 125 kts | 274° |
| 2026-05-08 16:22 | 45.34881 | 12.18299 | 4009 ft | 125 kts | 274° |
| 2026-05-08 16:22 | 45.34925 | 12.17074 | 4025 ft | 122 kts | 273° |
| 2026-05-08 16:22 | 45.34947 | 12.15813 | 3839 ft | 132 kts | 272° |
| 2026-05-08 16:22 | 45.34996 | 12.14487 | 3652 ft | 137 kts | 274° |
| 2026-05-08 16:23 | 45.35296 | 12.13225 | 3462 ft | 139 kts | 313° |
| 2026-05-08 16:23 | 45.36186 | 12.12769 | 3277 ft | 142 kts | 7° |
| 2026-05-08 16:23 | 45.36993 | 12.13514 | 3092 ft | 143 kts | 60° |
| 2026-05-08 16:23 | 45.37320 | 12.14822 | 3013 ft | 137 kts | 74° |
| 2026-05-08 16:24 | 45.37596 | 12.16100 | 3012 ft | 134 kts | 74° |
| 2026-05-08 16:24 | 45.37867 | 12.17353 | 3005 ft | 132 kts | 74° |
| 2026-05-08 16:24 | 45.38150 | 12.18594 | 2995 ft | 132 kts | 66° |
| 2026-05-08 16:24 | 45.38617 | 12.19733 | 2879 ft | 136 kts | 51° |
| 2026-05-08 16:25 | 45.39294 | 12.20710 | 2704 ft | 141 kts | 45° |
| 2026-05-08 16:25 | 45.39999 | 12.21668 | 2518 ft | 143 kts | 44° |
| 2026-05-08 16:25 | 45.40738 | 12.22647 | 2323 ft | 144 kts | 43° |
| 2026-05-08 16:25 | 45.41477 | 12.23583 | 2133 ft | 145 kts | 44° |
| 2026-05-08 16:26 | 45.42222 | 12.24547 | 1934 ft | 145 kts | 44° |
| 2026-05-08 16:26 | 45.42971 | 12.25501 | 1749 ft | 145 kts | 44° |
| 2026-05-08 16:26 | 45.43717 | 12.26465 | 1551 ft | 145 kts | 45° |
| 2026-05-08 16:26 | 45.44462 | 12.27419 | 1359 ft | 141 kts | 46° |
| 2026-05-08 16:27 | 45.45146 | 12.28302 | 1175 ft | 124 kts | 45° |
| 2026-05-08 16:27 | 45.45753 | 12.29083 | 1014 ft | 113 kts | 45° |
| 2026-05-08 16:27 | 45.46317 | 12.29802 | 853 ft | 106 kts | 45° |
| 2026-05-08 16:27 | 45.46857 | 12.30495 | 712 ft | 103 kts | 44° |
| 2026-05-08 16:28 | 45.47063 | 12.30763 | 664 ft | 101 kts | 44° |
| 2026-05-08 16:28 | 45.47589 | 12.31436 | 528 ft | 100 kts | 44° |
| 2026-05-08 16:28 | 45.48045 | 12.32030 | 412 ft | 100 kts | 44° |
| 2026-05-08 16:28 | 45.48567 | 12.32691 | 297 ft | 99 kts | 45° |
| 2026-05-08 16:29 | 45.49036 | 12.33284 | 156 ft | 85 kts | 45° |
| 2026-05-08 16:29 | 45.49440 | 12.33804 | 36 ft | 70 kts | 44° |
| 2026-05-08 16:29 | 45.49783 | 12.34251 | 7 ft | 59 kts | 43° |
| 2026-05-08 16:29 | 45.50041 | 12.34583 | 9 ft | 44 kts | 41° |
| 2026-05-08 16:30 | 45.50305 | 12.34923 | 9 ft | 53 kts | 41° |
| 2026-05-08 16:30 | 45.50565 | 12.35073 | 9 ft | 28 kts | 358° |
| 2026-05-08 16:30 | 45.50613 | 12.35027 | 9 ft | 5 kts | 278° |
| 2026-05-08 16:30 | 45.50609 | 12.34985 | 9 ft | 0 kts | 257° |
| 2026-05-08 16:31 | 45.50611 | 12.34901 | 10 ft | 13 kts | 269° |
| 2026-05-08 16:31 | 45.50610 | 12.34840 | 10 ft | 0 kts | 269° |
| 2026-05-08 16:32 | 45.50610 | 12.34830 | 10 ft | 7 kts | 266° |
| 2026-05-08 16:32 | 45.50604 | 12.34683 | 10 ft | 14 kts | 277° |
| 2026-05-08 16:32 | 45.50604 | 12.34560 | 10 ft | 11 kts | 271° |
| 2026-05-08 16:33 | 45.50594 | 12.34448 | 10 ft | 13 kts | 261° |
| 2026-05-08 16:33 | 45.50517 | 12.34337 | 10 ft | 19 kts | 201° |
| 2026-05-08 16:33 | 45.50393 | 12.34344 | 11 ft | 20 kts | 173° |
| 2026-05-08 16:33 | 45.50245 | 12.34296 | 11 ft | 25 kts | 219° |
| 2026-05-08 16:34 | 45.50135 | 12.34153 | 11 ft | 19 kts | 225° |
| 2026-05-08 16:34 | 45.50050 | 12.34040 | 10 ft | 15 kts | 221° |
| 2026-05-08 16:34 | 45.49985 | 12.33953 | 10 ft | 11 kts | 220° |
| 2026-05-08 16:34 | 45.49928 | 12.33883 | 10 ft | 9 kts | 220° |
| 2026-05-08 16:35 | 45.49886 | 12.33831 | 10 ft | 7 kts | 218° |
| 2026-05-08 16:35 | 45.49859 | 12.33795 | 10 ft | 4 kts | 223° |
| 2026-05-08 16:35 | 45.49845 | 12.33777 | 10 ft | 0 kts | 220° |
| 2026-05-08 16:36 | 45.49840 | 12.33771 | 10 ft | 0 kts | 221° |
| 2026-05-08 16:38 | 45.49824 | 12.33751 | 10 ft | 12 kts | 227° |
| 2026-05-08 16:38 | 45.49837 | 12.33671 | 11 ft | 7 kts | 250° |